Time;durP1;ratioP1;P1;durP2;ratioP2;P2;SDS_P1;SDS_P2;PMS_P1;PMS_P2;Temp;Humidity;BMP_temperature;BMP_pressure;BME280_temperature;BME280_humidity;BME280_pressure;Samples;Min_cycle;Max_cycle;Signal;HPM_P1;HPM_P2
2024/01/30 00:01:53;;;;;;;20.52;15.32;;;;;;;;;;4967956;28;25123;-65
2024/01/30 00:04:19;;;;;;;18.50;13.90;;;;;;;;;;4964470;28;25056;-66
2024/01/30 00:06:45;;;;;;;20.80;14.30;;;;;;;;;;4967030;28;25070;-64
2024/01/30 00:09:11;;;;;;;20.42;14.27;;;;;;;;;;4966259;28;25160;-64
2024/01/30 00:11:37;;;;;;;19.52;14.25;;;;;;;;;;4968849;28;25131;-65
2024/01/30 00:14:06;;;;;;;20.10;13.38;;;;;;;;;;4964943;28;25166;-65
2024/01/30 00:16:33;;;;;;;21.65;14.35;;;;;;;;;;4959925;28;25072;-66
2024/01/30 00:18:59;;;;;;;22.13;14.88;;;;;;;;;;4949293;28;25070;-66
2024/01/30 00:21:25;;;;;;;23.95;14.05;;;;;;;;;;4950777;28;25060;-65
2024/01/30 00:23:51;;;;;;;20.98;14.25;;;;;;;;;;4966747;28;25062;-65
2024/01/30 00:26:17;;;;;;;20.17;14.57;;;;;;;;;;4968432;28;25079;-65
2024/01/30 00:28:43;;;;;;;20.75;14.27;;;;;;;;;;4969970;28;25101;-66
2024/01/30 00:31:12;;;;;;;22.30;14.20;;;;;;;;;;4968888;28;25087;-64
2024/01/30 00:33:39;;;;;;;19.48;14.27;;;;;;;;;;4970408;28;25111;-66
2024/01/30 00:36:06;;;;;;;18.80;13.82;;;;;;;;;;4969136;28;25074;-66
2024/01/30 00:38:32;;;;;;;17.45;12.52;;;;;;;;;;4973684;28;25064;-64
2024/01/30 00:40:58;;;;;;;21.88;14.45;;;;;;;;;;4971577;28;25055;-67
2024/01/30 00:43:27;;;;;;;17.95;13.50;;;;;;;;;;4971100;28;25066;-66
2024/01/30 00:45:53;;;;;;;16.77;11.70;;;;;;;;;;4967598;28;25095;-64
2024/01/30 00:48:19;;;;;;;21.92;13.13;;;;;;;;;;4969329;28;25083;-67
2024/01/30 00:50:45;;;;;;;19.33;12.90;;;;;;;;;;4972116;28;25078;-65
2024/01/30 00:53:11;;;;;;;18.10;13.63;;;;;;;;;;4969496;28;25057;-66
2024/01/30 00:55:37;;;;;;;16.50;13.23;;;;;;;;;;4993133;28;25071;-65
2024/01/30 00:58:03;;;;;;;18.23;13.52;;;;;;;;;;4969226;28;25164;-66
2024/01/30 01:00:30;;;;;;;18.52;13.07;;;;;;;;;;4970816;28;25062;-66
2024/01/30 01:02:56;;;;;;;18.23;13.93;;;;;;;;;;4968216;28;25118;-66
2024/01/30 01:05:22;;;;;;;19.95;13.13;;;;;;;;;;4987674;28;25078;-66
2024/01/30 01:07:48;;;;;;;19.23;14.07;;;;;;;;;;4969753;28;25159;-65
2024/01/30 01:10:15;;;;;;;15.30;11.95;;;;;;;;;;4967475;28;25089;-66
2024/01/30 01:12:41;;;;;;;16.63;12.48;;;;;;;;;;4969719;28;25077;-65
2024/01/30 01:15:11;;;;;;;19.70;14.02;;;;;;;;;;4965272;28;25068;-65
2024/01/30 01:17:37;;;;;;;20.13;13.18;;;;;;;;;;4965895;28;25064;-65
2024/01/30 01:20:05;;;;;;;23.23;14.13;;;;;;;;;;4960776;28;25058;-66
2024/01/30 01:22:31;;;;;;;19.83;13.07;;;;;;;;;;4947888;28;25083;-66
2024/01/30 01:24:57;;;;;;;20.40;12.90;;;;;;;;;;4949502;28;25091;-66
2024/01/30 01:27:23;;;;;;;21.13;13.02;;;;;;;;;;4968120;28;25137;-66
2024/01/30 01:29:49;;;;;;;18.02;11.88;;;;;;;;;;4966854;28;25056;-66
2024/01/30 01:32:15;;;;;;;16.85;13.23;;;;;;;;;;4968159;28;25071;-66
2024/01/30 01:34:41;;;;;;;19.30;12.93;;;;;;;;;;4969863;28;25045;-66
2024/01/30 01:37:07;;;;;;;18.48;12.50;;;;;;;;;;4969113;28;25085;-65
2024/01/30 01:39:33;;;;;;;16.10;12.05;;;;;;;;;;4968594;28;25065;-66
2024/01/30 01:41:59;;;;;;;16.13;12.35;;;;;;;;;;4964570;28;25055;-66
2024/01/30 01:44:25;;;;;;;19.33;12.18;;;;;;;;;;4961241;28;25068;-65
2024/01/30 01:46:51;;;;;;;18.52;12.23;;;;;;;;;;4968611;28;25159;-66
2024/01/30 01:49:19;;;;;;;15.43;12.20;;;;;;;;;;4962931;28;25074;-65
2024/01/30 01:51:45;;;;;;;17.30;12.57;;;;;;;;;;4951558;28;25075;-66
2024/01/30 01:54:11;;;;;;;16.98;12.43;;;;;;;;;;4967816;28;25052;-66
2024/01/30 01:56:38;;;;;;;16.38;12.02;;;;;;;;;;4970115;28;25076;-66
2024/01/30 01:59:08;;;;;;;17.65;12.80;;;;;;;;;;4971685;28;25148;-67
2024/01/30 02:01:34;;;;;;;17.15;11.73;;;;;;;;;;4970266;28;25075;-67
2024/01/30 02:04:00;;;;;;;19.08;12.50;;;;;;;;;;4968385;28;25083;-67
2024/01/30 02:06:27;;;;;;;16.65;12.30;;;;;;;;;;4968190;28;25158;-65
2024/01/30 02:08:53;;;;;;;15.18;12.27;;;;;;;;;;4971283;28;25077;-66
2024/01/30 02:11:20;;;;;;;19.15;12.38;;;;;;;;;;4967384;28;25081;-65
2024/01/30 02:13:46;;;;;;;17.48;12.88;;;;;;;;;;4982799;28;25072;-67
2024/01/30 02:16:12;;;;;;;18.88;13.02;;;;;;;;;;4972574;28;25062;-66
2024/01/30 02:18:45;;;;;;;19.88;13.50;;;;;;;;;;4986954;28;25076;-65
2024/01/30 02:21:11;;;;;;;15.32;12.10;;;;;;;;;;4972334;28;25050;-67
2024/01/30 02:23:38;;;;;;;17.10;12.05;;;;;;;;;;4949767;28;25132;-66
2024/01/30 02:26:04;;;;;;;21.05;12.27;;;;;;;;;;4958109;28;25060;-66
2024/01/30 02:28:30;;;;;;;18.05;12.68;;;;;;;;;;4962660;28;25079;-66
2024/01/30 02:30:56;;;;;;;18.77;12.23;;;;;;;;;;4966609;28;25109;-66
2024/01/30 02:33:22;;;;;;;16.52;11.48;;;;;;;;;;4966885;28;25076;-66
2024/01/30 02:35:48;;;;;;;16.63;11.77;;;;;;;;;;4966004;28;25056;-65
2024/01/30 02:38:15;;;;;;;18.33;12.60;;;;;;;;;;4966569;28;25086;-66
2024/01/30 02:40:41;;;;;;;18.33;12.55;;;;;;;;;;4965605;28;25065;-67
2024/01/30 02:43:07;;;;;;;19.52;13.40;;;;;;;;;;4967217;28;25077;-67
2024/01/30 02:45:33;;;;;;;19.30;12.93;;;;;;;;;;4966574;28;25125;-66
2024/01/30 02:47:59;;;;;;;15.73;12.55;;;;;;;;;;4967179;28;25070;-67
2024/01/30 02:50:25;;;;;;;20.80;12.88;;;;;;;;;;4965307;28;25071;-66
2024/01/30 02:52:51;;;;;;;18.70;12.93;;;;;;;;;;4967237;28;25088;-68
2024/01/30 02:55:20;;;;;;;17.23;12.32;;;;;;;;;;4970776;28;25055;-66
2024/01/30 02:57:46;;;;;;;16.65;11.88;;;;;;;;;;4966899;28;25065;-68
2024/01/30 03:00:12;;;;;;;17.30;12.57;;;;;;;;;;4965991;28;25045;-66
2024/01/30 03:02:39;;;;;;;15.35;12.73;;;;;;;;;;4967039;28;25164;-67
2024/01/30 03:05:06;;;;;;;16.90;12.13;;;;;;;;;;4968797;28;25096;-66
2024/01/30 03:07:32;;;;;;;14.85;11.82;;;;;;;;;;4969059;28;25070;-66
2024/01/30 03:09:58;;;;;;;16.33;12.43;;;;;;;;;;4969953;28;25066;-67
2024/01/30 03:12:24;;;;;;;18.17;13.32;;;;;;;;;;4968936;28;25076;-66
2024/01/30 03:14:50;;;;;;;16.48;12.77;;;;;;;;;;4968360;28;25061;-66
2024/01/30 03:17:16;;;;;;;16.33;11.80;;;;;;;;;;4968914;28;25056;-66
2024/01/30 03:19:42;;;;;;;22.60;12.52;;;;;;;;;;4964522;28;25060;-67
2024/01/30 03:22:08;;;;;;;14.82;11.90;;;;;;;;;;4970588;28;25098;-65
2024/01/30 03:24:34;;;;;;;17.77;12.32;;;;;;;;;;4982716;28;25095;-66
2024/01/30 03:27:00;;;;;;;16.98;12.02;;;;;;;;;;4967549;28;25085;-66
2024/01/30 03:29:26;;;;;;;15.27;11.80;;;;;;;;;;4961008;28;25057;-67
2024/01/30 03:31:52;;;;;;;15.40;11.90;;;;;;;;;;4940796;28;25065;-66
2024/01/30 03:34:17;;;;;;;18.73;13.27;;;;;;;;;;4949675;28;25074;-65
2024/01/30 03:36:43;;;;;;;17.98;12.90;;;;;;;;;;4970325;28;25109;-67
2024/01/30 03:39:09;;;;;;;14.18;11.65;;;;;;;;;;4965518;28;25067;-67
2024/01/30 03:41:36;;;;;;;14.60;11.35;;;;;;;;;;4969072;28;25060;-67
2024/01/30 03:44:02;;;;;;;13.88;11.20;;;;;;;;;;4984563;28;25054;-67
2024/01/30 03:46:28;;;;;;;13.80;10.85;;;;;;;;;;4966533;28;25070;-66
2024/01/30 03:48:54;;;;;;;21.38;12.40;;;;;;;;;;4967127;28;25083;-65
2024/01/30 03:51:20;;;;;;;16.92;11.95;;;;;;;;;;4971049;28;25079;-66
2024/01/30 03:53:46;;;;;;;22.98;12.05;;;;;;;;;;4971461;28;25077;-66
2024/01/30 03:56:15;;;;;;;17.33;11.32;;;;;;;;;;4974404;28;25112;-66
2024/01/30 03:58:41;;;;;;;18.80;11.50;;;;;;;;;;4970951;28;25118;-66
2024/01/30 04:01:08;;;;;;;14.77;11.35;;;;;;;;;;4967481;28;25071;-68
2024/01/30 04:03:34;;;;;;;15.15;11.40;;;;;;;;;;4968608;28;25069;-65
2024/01/30 04:06:00;;;;;;;18.17;11.35;;;;;;;;;;4961777;28;25145;-66
2024/01/30 04:08:26;;;;;;;17.83;11.65;;;;;;;;;;4969205;28;25060;-66
2024/01/30 04:10:52;;;;;;;14.23;11.57;;;;;;;;;;4942612;28;25052;-66
2024/01/30 04:13:18;;;;;;;16.02;11.95;;;;;;;;;;4950220;28;25061;-68
2024/01/30 04:15:44;;;;;;;16.55;10.77;;;;;;;;;;4969090;28;25097;-66
2024/01/30 04:18:10;;;;;;;14.73;11.18;;;;;;;;;;4967178;28;25050;-67
2024/01/30 04:20:36;;;;;;;16.52;11.65;;;;;;;;;;4969295;28;25140;-66
2024/01/30 04:23:02;;;;;;;19.20;11.13;;;;;;;;;;4976488;28;25065;-66
2024/01/30 04:25:28;;;;;;;16.05;11.77;;;;;;;;;;4961600;28;25065;-66
2024/01/30 04:27:54;;;;;;;15.88;11.10;;;;;;;;;;4949215;28;25054;-66
2024/01/30 04:30:20;;;;;;;15.98;11.55;;;;;;;;;;4971012;28;25083;-66
2024/01/30 04:32:46;;;;;;;14.13;10.48;;;;;;;;;;4978867;28;25071;-65
2024/01/30 04:35:12;;;;;;;16.75;10.77;;;;;;;;;;4976310;28;25069;-67
2024/01/30 04:37:38;;;;;;;14.82;10.35;;;;;;;;;;4978687;28;25056;-66
2024/01/30 04:40:05;;;;;;;17.33;10.68;;;;;;;;;;4969868;28;25127;-67
2024/01/30 04:42:31;;;;;;;12.93;10.88;;;;;;;;;;4974844;28;25085;-66
2024/01/30 04:44:57;;;;;;;16.95;11.07;;;;;;;;;;4986988;28;25060;-66
2024/01/30 04:47:23;;;;;;;14.20;10.55;;;;;;;;;;4990143;28;25066;-65
2024/01/30 04:49:50;;;;;;;13.95;10.73;;;;;;;;;;4988786;28;25099;-65
2024/01/30 04:52:16;;;;;;;15.65;10.65;;;;;;;;;;4986445;28;25069;-66
2024/01/30 04:54:42;;;;;;;15.57;11.43;;;;;;;;;;4982052;28;25133;-67
2024/01/30 04:57:09;;;;;;;14.73;11.52;;;;;;;;;;4976729;28;25048;-66
2024/01/30 04:59:36;;;;;;;14.57;10.75;;;;;;;;;;5001674;28;25079;-67
2024/01/30 05:02:02;;;;;;;14.90;11.00;;;;;;;;;;4970594;28;25059;-67
2024/01/30 05:04:28;;;;;;;16.50;10.95;;;;;;;;;;4968460;28;25075;-67
2024/01/30 05:06:54;;;;;;;12.15;10.45;;;;;;;;;;4968145;28;25053;-66
2024/01/30 05:09:20;;;;;;;14.57;10.57;;;;;;;;;;4968694;28;25108;-67
2024/01/30 05:11:46;;;;;;;16.10;11.38;;;;;;;;;;4969301;28;25070;-67
2024/01/30 05:14:14;;;;;;;15.65;10.93;;;;;;;;;;4968630;28;25069;-67
2024/01/30 05:16:41;;;;;;;17.10;11.43;;;;;;;;;;4966251;28;25079;-68
2024/01/30 05:19:07;;;;;;;16.65;10.75;;;;;;;;;;4968046;28;25115;-67
2024/01/30 05:21:33;;;;;;;16.38;11.45;;;;;;;;;;4969495;28;25105;-68
2024/01/30 05:23:59;;;;;;;14.23;10.88;;;;;;;;;;4971458;28;25084;-66
2024/01/30 05:26:25;;;;;;;14.43;10.38;;;;;;;;;;4969030;28;25063;-66
2024/01/30 05:28:51;;;;;;;15.77;11.77;;;;;;;;;;4959009;28;25059;-66
2024/01/30 05:31:17;;;;;;;17.08;11.98;;;;;;;;;;4950402;28;25068;-67
2024/01/30 05:33:43;;;;;;;18.63;10.75;;;;;;;;;;4968652;28;25078;-67
2024/01/30 05:36:12;;;;;;;17.48;11.63;;;;;;;;;;4992274;28;25083;-67
2024/01/30 05:38:38;;;;;;;16.45;11.80;;;;;;;;;;4965616;28;25068;-68
2024/01/30 05:41:04;;;;;;;16.63;11.30;;;;;;;;;;4969561;28;25149;-66
2024/01/30 05:43:30;;;;;;;14.73;10.57;;;;;;;;;;4962312;28;25071;-65
2024/01/30 05:45:56;;;;;;;17.67;11.38;;;;;;;;;;4951655;28;25141;-66
2024/01/30 05:48:22;;;;;;;19.33;12.20;;;;;;;;;;4979778;28;25062;-67
2024/01/30 05:50:48;;;;;;;15.38;11.32;;;;;;;;;;4967103;28;25056;-67
2024/01/30 05:53:14;;;;;;;17.38;11.45;;;;;;;;;;4966570;28;25092;-67
2024/01/30 05:55:40;;;;;;;16.33;11.50;;;;;;;;;;4966086;28;25057;-66
2024/01/30 05:58:06;;;;;;;16.20;10.93;;;;;;;;;;4965585;28;25083;-67
2024/01/30 06:00:32;;;;;;;14.65;10.40;;;;;;;;;;4962051;28;25054;-66
2024/01/30 06:02:58;;;;;;;13.05;11.05;;;;;;;;;;4982627;28;25107;-66
2024/01/30 06:05:24;;;;;;;17.70;11.30;;;;;;;;;;4967511;28;25132;-67
2024/01/30 06:07:50;;;;;;;18.40;12.13;;;;;;;;;;4965102;28;25122;-66
2024/01/30 06:10:16;;;;;;;14.60;10.38;;;;;;;;;;4966761;28;25061;-66
2024/01/30 06:12:41;;;;;;;16.42;11.55;;;;;;;;;;4966650;28;25107;-65
2024/01/30 06:15:08;;;;;;;15.52;10.80;;;;;;;;;;4965858;28;25076;-65
2024/01/30 06:17:35;;;;;;;17.02;12.02;;;;;;;;;;4964762;28;25091;-68
2024/01/30 06:20:01;;;;;;;20.10;11.30;;;;;;;;;;4974658;28;25066;-69
2024/01/30 06:22:27;;;;;;;19.67;11.82;;;;;;;;;;4965924;28;25100;-66
2024/01/30 06:24:53;;;;;;;16.90;11.77;;;;;;;;;;4963872;28;25065;-67
2024/01/30 06:27:19;;;;;;;13.70;9.88;;;;;;;;;;4967418;28;25130;-66
2024/01/30 06:29:45;;;;;;;17.98;11.05;;;;;;;;;;4964498;28;25112;-67
2024/01/30 06:32:11;;;;;;;21.15;11.07;;;;;;;;;;4962311;28;25072;-67
2024/01/30 06:34:38;;;;;;;14.90;10.50;;;;;;;;;;4966696;28;25147;-65
2024/01/30 06:37:04;;;;;;;16.88;10.02;;;;;;;;;;4970159;28;25151;-66
2024/01/30 06:39:30;;;;;;;13.32;10.55;;;;;;;;;;4964737;28;25122;-66
2024/01/30 06:41:56;;;;;;;14.50;10.95;;;;;;;;;;4963685;28;25157;-65
2024/01/30 06:44:22;;;;;;;14.48;10.93;;;;;;;;;;4966766;28;25064;-65
2024/01/30 06:46:48;;;;;;;16.02;10.57;;;;;;;;;;4967280;28;25101;-66
2024/01/30 06:49:14;;;;;;;17.00;10.68;;;;;;;;;;4968017;28;25134;-67
2024/01/30 06:51:40;;;;;;;16.33;10.30;;;;;;;;;;4966772;28;25089;-66
2024/01/30 06:54:06;;;;;;;16.13;9.88;;;;;;;;;;4965398;28;25073;-66
2024/01/30 06:56:32;;;;;;;13.70;10.15;;;;;;;;;;4955035;28;25065;-66
2024/01/30 06:58:59;;;;;;;15.48;10.07;;;;;;;;;;4967548;28;25114;-66
2024/01/30 07:01:29;;;;;;;19.95;11.15;;;;;;;;;;4971752;28;25067;-67
2024/01/30 07:03:55;;;;;;;18.20;10.82;;;;;;;;;;4979819;28;25163;-65
2024/01/30 07:06:22;;;;;;;14.98;9.75;;;;;;;;;;4984740;28;25108;-65
2024/01/30 07:08:48;;;;;;;16.25;10.07;;;;;;;;;;4968347;28;25093;-67
2024/01/30 07:11:19;;;;;;;15.52;10.27;;;;;;;;;;4985282;28;25140;-67
2024/01/30 07:13:45;;;;;;;18.73;10.98;;;;;;;;;;4969883;28;25065;-66
2024/01/30 07:16:11;;;;;;;17.80;11.60;;;;;;;;;;4968683;28;25055;-66
2024/01/30 07:18:36;;;;;;;22.55;11.13;;;;;;;;;;4967142;28;25094;-66
2024/01/30 07:21:02;;;;;;;16.20;11.35;;;;;;;;;;4967491;28;25063;-63
2024/01/30 07:23:29;;;;;;;23.25;10.70;;;;;;;;;;4967431;28;25083;-65
2024/01/30 07:25:55;;;;;;;21.80;11.30;;;;;;;;;;4966005;28;25078;-66
2024/01/30 07:28:21;;;;;;;21.02;10.05;;;;;;;;;;4980363;28;25074;-66
2024/01/30 07:30:48;;;;;;;19.52;10.85;;;;;;;;;;4967511;28;25092;-66
2024/01/30 07:33:14;;;;;;;22.40;9.88;;;;;;;;;;4965067;28;25182;-66
2024/01/30 07:35:40;;;;;;;21.13;11.40;;;;;;;;;;4962757;28;25055;-67
2024/01/30 07:38:06;;;;;;;16.70;10.57;;;;;;;;;;4964996;28;25064;-65
2024/01/30 07:40:33;;;;;;;18.88;10.63;;;;;;;;;;4962181;28;25137;-66
2024/01/30 07:42:59;;;;;;;16.48;10.88;;;;;;;;;;4961382;28;25099;-66
2024/01/30 07:45:27;;;;;;;18.90;9.65;;;;;;;;;;4966093;28;25161;-66
2024/01/30 07:47:53;;;;;;;23.17;10.13;;;;;;;;;;4969358;28;25096;-66
2024/01/30 07:50:19;;;;;;;25.48;11.38;;;;;;;;;;4967209;28;25144;-64
2024/01/30 07:52:45;;;;;;;19.80;10.07;;;;;;;;;;4965881;28;25123;-65
2024/01/30 07:55:12;;;;;;;16.35;10.00;;;;;;;;;;4968399;28;25131;-65
2024/01/30 07:57:41;;;;;;;13.60;9.75;;;;;;;;;;4968326;28;25080;-66
2024/01/30 08:00:07;;;;;;;21.17;9.95;;;;;;;;;;4960693;28;25071;-67
2024/01/30 08:02:33;;;;;;;22.63;10.63;;;;;;;;;;4965986;28;25092;-66
2024/01/30 08:04:59;;;;;;;25.02;10.45;;;;;;;;;;4965226;28;25090;-66
2024/01/30 08:07:25;;;;;;;19.90;9.13;;;;;;;;;;4959715;28;25056;-65
2024/01/30 08:09:51;;;;;;;15.45;9.63;;;;;;;;;;4943624;28;25149;-67
2024/01/30 08:12:17;;;;;;;21.63;9.05;;;;;;;;;;4965590;28;25107;-67
2024/01/30 08:14:43;;;;;;;15.98;9.30;;;;;;;;;;4973397;28;25049;-62
2024/01/30 08:17:09;;;;;;;18.38;10.32;;;;;;;;;;4961835;28;25058;-64
2024/01/30 08:19:35;;;;;;;15.48;9.50;;;;;;;;;;4964532;28;25071;-64
2024/01/30 08:22:01;;;;;;;15.02;8.45;;;;;;;;;;4958918;28;25056;-65
2024/01/30 08:24:27;;;;;;;20.00;9.63;;;;;;;;;;4978795;28;25131;-64
2024/01/30 08:26:53;;;;;;;18.38;9.77;;;;;;;;;;4964007;28;25049;-64
2024/01/30 08:29:19;;;;;;;20.92;10.30;;;;;;;;;;4956372;28;25144;-65
2024/01/30 08:31:46;;;;;;;18.05;9.93;;;;;;;;;;4943822;28;25065;-65
2024/01/30 08:34:12;;;;;;;13.90;9.82;;;;;;;;;;4949909;28;25070;-63
2024/01/30 08:36:38;;;;;;;23.33;9.48;;;;;;;;;;4948802;28;25123;-66
2024/01/30 08:39:05;;;;;;;20.80;11.10;;;;;;;;;;4972915;28;25145;-66
2024/01/30 08:41:31;;;;;;;24.88;10.73;;;;;;;;;;4981724;28;25087;-66
2024/01/30 08:43:57;;;;;;;13.88;9.70;;;;;;;;;;4981444;28;25068;-64
2024/01/30 08:46:23;;;;;;;18.95;11.20;;;;;;;;;;4969535;28;25066;-67
2024/01/30 08:48:49;;;;;;;19.75;9.93;;;;;;;;;;4975275;28;25065;-64
2024/01/30 08:51:15;;;;;;;19.40;9.77;;;;;;;;;;4969994;28;25131;-66
2024/01/30 08:53:41;;;;;;;19.75;10.50;;;;;;;;;;4971458;28;25125;-63
2024/01/30 08:56:07;;;;;;;17.80;11.07;;;;;;;;;;4976341;28;25063;-64
2024/01/30 08:58:33;;;;;;;22.85;11.35;;;;;;;;;;4970826;28;25054;-62
2024/01/30 09:00:59;;;;;;;16.67;9.88;;;;;;;;;;4969683;28;25067;-63
2024/01/30 09:03:25;;;;;;;16.95;9.48;;;;;;;;;;4975036;28;25052;-64
2024/01/30 09:05:51;;;;;;;16.52;9.65;;;;;;;;;;4970697;28;25136;-65
2024/01/30 09:08:17;;;;;;;20.45;9.98;;;;;;;;;;4975479;28;25140;-63
2024/01/30 09:10:44;;;;;;;20.27;9.80;;;;;;;;;;4979670;28;25087;-63
2024/01/30 09:13:10;;;;;;;26.92;11.20;;;;;;;;;;4974363;28;25128;-66
2024/01/30 09:15:36;;;;;;;17.50;9.32;;;;;;;;;;4978001;28;25072;-65
2024/01/30 09:18:02;;;;;;;20.38;9.55;;;;;;;;;;4970113;28;25128;-65
2024/01/30 09:20:28;;;;;;;18.10;10.32;;;;;;;;;;4970771;28;25063;-65
2024/01/30 09:22:54;;;;;;;15.93;9.55;;;;;;;;;;4975342;28;25151;-66
2024/01/30 09:25:20;;;;;;;19.10;9.82;;;;;;;;;;4976072;28;25072;-64
2024/01/30 09:27:46;;;;;;;19.73;9.43;;;;;;;;;;4977042;28;25073;-64
2024/01/30 09:30:12;;;;;;;18.05;9.13;;;;;;;;;;4978789;28;25078;-65
2024/01/30 09:32:40;;;;;;;15.32;8.98;;;;;;;;;;4990420;28;25065;-64
2024/01/30 09:35:06;;;;;;;19.80;9.13;;;;;;;;;;4982251;28;25057;-67
2024/01/30 09:37:32;;;;;;;18.80;10.07;;;;;;;;;;4991906;28;25068;-64
2024/01/30 09:39:58;;;;;;;16.48;8.82;;;;;;;;;;4979339;28;25055;-63
2024/01/30 09:42:35;;;;;;;13.93;8.52;;;;;;;;;;4972359;28;25137;-65
2024/01/30 09:45:01;;;;;;;14.00;9.07;;;;;;;;;;4967898;28;25146;-64
2024/01/30 09:47:28;;;;;;;17.80;8.93;;;;;;;;;;4975866;28;25074;-65
2024/01/30 09:49:54;;;;;;;16.80;9.13;;;;;;;;;;4979887;28;25047;-65
2024/01/30 09:52:20;;;;;;;18.35;10.00;;;;;;;;;;4970004;28;25028;-67
2024/01/30 09:54:46;;;;;;;16.23;9.55;;;;;;;;;;4970096;28;25060;-64
2024/01/30 09:57:12;;;;;;;14.25;9.15;;;;;;;;;;4965075;28;25058;-64
2024/01/30 09:59:38;;;;;;;14.40;10.27;;;;;;;;;;4964898;28;25096;-66
2024/01/30 10:02:04;;;;;;;15.82;9.07;;;;;;;;;;4966878;28;25069;-67
2024/01/30 10:04:31;;;;;;;18.85;9.40;;;;;;;;;;4959204;28;25065;-66
2024/01/30 10:06:58;;;;;;;16.48;9.85;;;;;;;;;;4943766;28;25084;-65
2024/01/30 10:09:25;;;;;;;17.20;9.38;;;;;;;;;;4971938;28;25149;-65
2024/01/30 10:11:51;;;;;;;23.52;10.00;;;;;;;;;;4967512;28;25158;-66
2024/01/30 10:14:17;;;;;;;15.63;7.72;;;;;;;;;;4967929;28;25046;-66
2024/01/30 10:16:45;;;;;;;13.60;8.27;;;;;;;;;;4967161;28;25077;-66
2024/01/30 10:19:11;;;;;;;14.25;7.63;;;;;;;;;;4967859;28;25149;-62
2024/01/30 10:21:37;;;;;;;16.38;8.35;;;;;;;;;;4967140;28;25076;-64
2024/01/30 10:24:03;;;;;;;13.63;8.18;;;;;;;;;;4965512;28;25072;-65
2024/01/30 10:26:33;;;;;;;17.15;7.82;;;;;;;;;;4968406;28;25076;-66
2024/01/30 10:28:58;;;;;;;12.50;6.70;;;;;;;;;;4966684;28;25080;-65
2024/01/30 10:31:25;;;;;;;18.00;6.35;;;;;;;;;;4967543;28;25125;-63
2024/01/30 10:33:51;;;;;;;14.73;7.03;;;;;;;;;;4967077;28;25079;-65
2024/01/30 10:36:18;;;;;;;14.57;6.18;;;;;;;;;;4964646;28;25095;-65
2024/01/30 10:38:46;;;;;;;16.40;6.63;;;;;;;;;;4965893;28;25122;-66
2024/01/30 10:41:16;;;;;;;18.02;6.53;;;;;;;;;;4965424;28;25047;-66
2024/01/30 10:43:42;;;;;;;13.40;5.78;;;;;;;;;;4964478;28;25062;-65
2024/01/30 10:46:15;;;;;;;13.85;5.75;;;;;;;;;;4966282;28;25053;-65
2024/01/30 10:48:48;;;;;;;15.40;6.32;;;;;;;;;;4967584;28;25103;-64
2024/01/30 10:51:14;;;;;;;12.95;5.28;;;;;;;;;;4982678;28;25059;-67
2024/01/30 10:53:41;;;;;;;7.85;4.88;;;;;;;;;;4963374;28;25065;-64
2024/01/30 10:56:08;;;;;;;9.02;2.47;;;;;;;;;;4966330;28;25059;-67
2024/01/30 10:58:34;;;;;;;4.03;1.90;;;;;;;;;;4972995;28;25137;-66
2024/01/30 11:01:01;;;;;;;8.00;1.23;;;;;;;;;;4970653;28;25133;-64
2024/01/30 11:03:27;;;;;;;4.95;0.98;;;;;;;;;;4966778;28;25084;-66
2024/01/30 11:05:53;;;;;;;5.78;1.27;;;;;;;;;;4965584;28;25073;-63
2024/01/30 11:08:23;;;;;;;3.55;1.27;;;;;;;;;;4966321;28;25062;-63
2024/01/30 11:10:49;;;;;;;10.85;1.10;;;;;;;;;;4965167;28;25127;-66
2024/01/30 11:13:15;;;;;;;2.45;1.00;;;;;;;;;;4987909;28;25045;-65
2024/01/30 11:15:41;;;;;;;4.90;1.65;;;;;;;;;;4966093;28;25155;-66
2024/01/30 11:18:07;;;;;;;4.68;1.65;;;;;;;;;;4961191;28;25106;-66
2024/01/30 11:20:35;;;;;;;9.68;2.00;;;;;;;;;;4963462;28;25141;-66
2024/01/30 11:23:05;;;;;;;5.22;1.80;;;;;;;;;;4955557;28;25067;-66
2024/01/30 11:25:32;;;;;;;4.00;1.83;;;;;;;;;;4963349;28;25157;-66
2024/01/30 11:27:58;;;;;;;7.47;2.28;;;;;;;;;;4966802;28;25089;-64
2024/01/30 11:30:25;;;;;;;6.88;2.17;;;;;;;;;;4965803;28;25064;-66
2024/01/30 11:33:04;;;;;;;8.70;2.58;;;;;;;;;;4965944;28;25062;-66
2024/01/30 11:35:34;;;;;;;5.93;2.83;;;;;;;;;;4964066;28;25132;-67
2024/01/30 11:38:01;;;;;;;9.68;2.70;;;;;;;;;;4946094;28;25083;-65
2024/01/30 11:40:28;;;;;;;12.40;2.70;;;;;;;;;;4950032;28;25059;-66
2024/01/30 11:42:55;;;;;;;7.28;2.90;;;;;;;;;;4966199;28;25064;-66
2024/01/30 11:45:21;;;;;;;15.00;3.50;;;;;;;;;;4967953;28;25065;-65
2024/01/30 11:47:47;;;;;;;11.98;3.38;;;;;;;;;;4970360;28;25048;-65
2024/01/30 11:50:13;;;;;;;10.75;3.03;;;;;;;;;;4960160;28;25062;-64
2024/01/30 11:52:40;;;;;;;12.52;2.80;;;;;;;;;;4966866;28;25094;-67
2024/01/30 11:55:08;;;;;;;15.93;3.72;;;;;;;;;;4968535;28;25079;-65
2024/01/30 11:57:35;;;;;;;13.00;3.10;;;;;;;;;;4979825;28;25110;-66
2024/01/30 12:00:04;;;;;;;11.45;2.63;;;;;;;;;;4987810;28;25057;-67
2024/01/30 12:02:30;;;;;;;17.98;3.38;;;;;;;;;;4984653;28;25107;-66
2024/01/30 12:04:56;;;;;;;13.75;3.45;;;;;;;;;;4974596;28;25057;-67
2024/01/30 12:07:22;;;;;;;17.73;3.10;;;;;;;;;;4960194;28;25064;-67
2024/01/30 12:09:54;;;;;;;13.70;3.35;;;;;;;;;;4971573;28;25063;-66
2024/01/30 12:12:22;;;;;;;14.00;2.70;;;;;;;;;;4967014;28;25103;-65
2024/01/30 12:14:48;;;;;;;17.83;3.33;;;;;;;;;;4971047;28;25058;-64
2024/01/30 12:17:23;;;;;;;10.45;2.72;;;;;;;;;;4969208;28;25073;-66
2024/01/30 12:19:49;;;;;;;15.25;2.72;;;;;;;;;;4966877;28;25086;-64
2024/01/30 12:22:15;;;;;;;10.07;2.33;;;;;;;;;;4973967;28;25072;-67
2024/01/30 12:24:41;;;;;;;9.38;2.33;;;;;;;;;;4967749;28;25082;-65
2024/01/30 12:27:07;;;;;;;10.68;2.10;;;;;;;;;;4968924;28;25067;-64
2024/01/30 12:29:33;;;;;;;8.27;2.20;;;;;;;;;;4983246;28;25142;-67
2024/01/30 12:32:00;;;;;;;7.10;1.60;;;;;;;;;;4969136;28;25147;-66
2024/01/30 12:34:26;;;;;;;10.50;2.42;;;;;;;;;;4979051;28;25064;-65
2024/01/30 12:36:52;;;;;;;9.13;2.10;;;;;;;;;;4968884;28;25065;-61
2024/01/30 12:39:18;;;;;;;5.72;1.55;;;;;;;;;;4969689;28;25152;-65
2024/01/30 12:41:44;;;;;;;5.50;1.45;;;;;;;;;;4970182;28;25063;-64
2024/01/30 12:44:10;;;;;;;8.05;1.67;;;;;;;;;;4982796;28;25090;-68
2024/01/30 12:46:36;;;;;;;11.30;1.80;;;;;;;;;;4969041;28;24865;-66
2024/01/30 12:49:02;;;;;;;5.18;1.20;;;;;;;;;;4974361;28;25061;-66
2024/01/30 12:51:28;;;;;;;7.63;1.40;;;;;;;;;;4970644;28;25067;-64
2024/01/30 12:53:54;;;;;;;10.32;2.25;;;;;;;;;;4966496;28;25061;-63
2024/01/30 12:56:20;;;;;;;7.03;1.60;;;;;;;;;;4967821;28;25069;-64
2024/01/30 12:58:46;;;;;;;6.45;1.40;;;;;;;;;;4964060;28;25132;-65
2024/01/30 13:01:12;;;;;;;4.93;1.52;;;;;;;;;;4950048;28;25056;-65
2024/01/30 13:03:38;;;;;;;6.60;1.95;;;;;;;;;;4963764;28;25062;-66
2024/01/30 13:06:04;;;;;;;6.00;1.65;;;;;;;;;;4966541;28;25183;-66
2024/01/30 13:08:30;;;;;;;8.30;1.58;;;;;;;;;;4968699;28;25089;-63
2024/01/30 13:10:56;;;;;;;5.47;2.50;;;;;;;;;;4969820;28;25064;-65
2024/01/30 13:13:22;;;;;;;8.23;2.95;;;;;;;;;;4968927;28;25137;-66
2024/01/30 13:15:49;;;;;;;5.60;3.47;;;;;;;;;;4966923;28;25132;-64
2024/01/30 13:18:15;;;;;;;9.05;4.32;;;;;;;;;;4965350;28;25103;-66
2024/01/30 13:20:41;;;;;;;12.00;5.28;;;;;;;;;;4967549;28;25106;-64
2024/01/30 13:23:07;;;;;;;15.10;5.82;;;;;;;;;;4973925;28;25148;-66
2024/01/30 13:25:32;;;;;;;11.82;5.95;;;;;;;;;;4966559;28;25101;-67
2024/01/30 13:27:58;;;;;;;9.05;3.60;;;;;;;;;;4982047;28;25106;-64
2024/01/30 13:30:24;;;;;;;9.18;3.25;;;;;;;;;;4971733;28;25074;-65
2024/01/30 13:32:50;;;;;;;11.68;4.50;;;;;;;;;;4969311;28;25087;-64
2024/01/30 13:35:16;;;;;;;12.82;3.20;;;;;;;;;;4968113;28;25109;-66
2024/01/30 13:37:42;;;;;;;10.05;3.05;;;;;;;;;;4966924;28;25059;-64
2024/01/30 13:40:09;;;;;;;5.97;2.95;;;;;;;;;;4970086;28;25104;-65
2024/01/30 13:42:35;;;;;;;11.70;3.15;;;;;;;;;;4971852;28;25051;-65
2024/01/30 13:45:01;;;;;;;10.60;2.88;;;;;;;;;;4972272;28;25057;-66
2024/01/30 13:47:27;;;;;;;14.85;3.67;;;;;;;;;;4972027;28;25063;-65
2024/01/30 13:49:53;;;;;;;9.90;3.47;;;;;;;;;;4963510;28;25117;-64
2024/01/30 13:52:19;;;;;;;23.05;3.05;;;;;;;;;;4964669;28;25055;-66
2024/01/30 13:54:45;;;;;;;12.70;3.25;;;;;;;;;;4963917;28;25128;-65
2024/01/30 13:57:11;;;;;;;9.18;2.78;;;;;;;;;;4965115;28;25145;-68
2024/01/30 13:59:38;;;;;;;14.20;3.47;;;;;;;;;;4963967;28;25076;-65
2024/01/30 14:02:06;;;;;;;13.13;3.58;;;;;;;;;;4961956;28;25146;-67
2024/01/30 14:04:32;;;;;;;17.02;3.30;;;;;;;;;;4983101;28;25047;-65
2024/01/30 14:06:58;;;;;;;10.18;2.70;;;;;;;;;;4968249;28;25072;-64
2024/01/30 14:09:24;;;;;;;12.82;3.40;;;;;;;;;;4966490;28;25093;-64
2024/01/30 14:11:50;;;;;;;18.65;3.45;;;;;;;;;;4965894;28;25071;-65
2024/01/30 14:14:16;;;;;;;15.27;2.97;;;;;;;;;;4966795;28;25079;-65
2024/01/30 14:16:42;;;;;;;11.60;2.70;;;;;;;;;;4966109;28;25059;-65
2024/01/30 14:19:08;;;;;;;10.98;3.40;;;;;;;;;;4970544;28;25106;-65